Latest Weather Observations for Halls Creek

IDW60801

Issued at 10:03 am WST Tuesday 22 September 2020 (issued every 10 minutes, with the page automatically refreshed every 10 minutes)

About weather observations | Map of weather stations | Latest weather observations for WA | Other Formats
Station Details ID: 002079 Name: HALLS CREEK AIRPORT Lat: -18.23 Lon: 127.67 Height: 409.4 m
Data from the previous 72 hours. | See also: Recent months at Halls Creek
Date/Time
WST
Temp
°C
App
Temp
°C
Dew
Point
°C
Rel
Hum
%
Delta-T
°C
Wind Press
QNH
hPa
Press
MSL
hPa
Rain since
9am
mm
Dir  Spd
km/h
Gust
km/h
Spd
kts
Gust
kts
22/10:00am 31.7 25.3 -5.0 9 16.6 ESE 20 28 11 15 1016.0 1013.5 0.0
22/09:30am 31.8 25.4 -4.9 9 16.7 ESE 20 28 11 15 1016.4 1013.9 0.0
22/09:00am 30.8 23.6 -5.7 9 16.2 ESE 24 32 13 17 1016.4 1013.9 0.0
22/08:30am 30.4 23.7 -4.6 10 15.8 ESE 22 32 12 17 1016.6 1014.1 0.0
22/08:00am 28.7 21.6 -4.6 11 14.8 SE 24 30 13 16 1016.6 1014.1 0.0
22/07:30am 27.1 21.3 -4.7 12 13.9 ESE 17 22 9 12 1016.5 1014.0 0.0
22/07:00am 25.9 20.5 -4.6 13 13.2 E 15 20 8 11 1016.0 1013.5 0.0
22/06:30am 24.8 20.6 -3.6 15 12.5 SE 9 13 5 7 1015.9 1013.4 0.0
22/06:00am 23.8 19.7 -2.7 17 11.7 E 9 11 5 6 1015.4 1012.9 0.0
22/05:30am 22.8 18.6 -3.5 17 11.4 E 9 13 5 7 1015.5 1013.0 0.0
22/05:00am 23.7 19.1 -4.4 15 12.0 ESE 11 15 6 8 1014.7 1012.2 0.0
22/04:30am 24.3 19.7 -4.0 15 12.3 SE 11 22 6 12 1014.1 1011.6 0.0
22/04:00am 23.9 19.7 -4.3 15 12.1 SE 9 15 5 8 1013.5 1011.0 0.0
22/03:30am 24.0 19.4 -4.2 15 12.1 ESE 11 17 6 9 1013.2 1010.7 0.0
22/03:00am 24.2 20.4 -4.0 15 12.2 SE 7 13 4 7 1013.2 1010.7 0.0
22/02:30am 24.2 20.5 -3.2 16 12.0 E 7 9 4 5 1012.9 1010.3 0.0
22/02:00am 25.4 20.8 -4.0 14 12.9 SE 11 15 6 8 1012.9 1010.3 0.0
22/01:30am 25.9 21.7 -3.6 14 13.1 SE 9 15 5 8 1012.9 1010.3 0.0
22/01:00am 26.2 21.2 -4.4 13 13.4 SE 13 19 7 10 1013.0 1010.4 0.0
22/12:30am 26.6 21.7 -3.1 14 13.3 SE 13 20 7 11 1012.9 1010.3 0.0
22/12:00am 26.4 22.3 -3.2 14 13.3 SE 9 13 5 7 1012.8 1010.2 0.0
 
Date/Time
WST
Temp
°C
App
Temp
°C
Dew
Point
°C
Rel
Hum
%
Delta-T
°C
Wind Press
QNH
hPa
Press
MSL
hPa
Rain since
9am
mm
Dir  Spd
km/h
Gust
km/h
Spd
kts
Gust
kts
21/11:30pm 27.0 21.7 -3.7 13 13.7 SE 15 24 8 13 1012.8 1010.2 0.0
21/11:00pm 27.5 22.0 -2.3 14 13.7 S 17 30 9 16 1013.0 1010.4 0.0
21/10:30pm 27.6 22.2 -1.3 15 13.5 S 17 26 9 14 1013.0 1010.4 0.0
21/10:00pm 28.5 22.5 1.1 17 13.5 S 22 39 12 21 1013.3 1010.8 0.0
21/09:30pm 28.7 24.2 2.1 18 13.3 S 15 22 8 12 1013.3 1010.8 0.0
21/09:00pm 28.7 24.7 2.8 19 13.1 S 13 17 7 9 1013.6 1011.1 0.0
21/08:30pm 28.9 25.2 4.4 21 12.8 S 13 19 7 10 1013.5 1011.0 0.0
21/08:00pm 29.3 25.3 4.7 21 12.9 S 15 20 8 11 1013.5 1011.0 0.0
21/07:30pm 29.7 25.9 5.7 22 12.8 S 15 20 8 11 1013.3 1010.8 0.0
21/07:00pm 30.1 25.7 4.7 20 13.4 S 17 22 9 12 1013.1 1010.6 0.0
21/06:30pm 30.7 26.2 4.4 19 13.9 S 17 24 9 13 1012.7 1010.1 0.0
21/06:00pm 31.5 26.5 3.5 17 14.6 S 19 26 10 14 1012.1 1009.6 0.0
21/05:30pm 32.3 27.5 2.4 15 15.4 S 17 22 9 12 1011.7 1009.2 0.0
21/05:00pm 33.3 27.9 1.2 13 16.3 S 19 32 10 17 1011.4 1008.9 0.0
21/04:30pm 34.1 28.4 0.7 12 16.9 S 20 30 11 16 1011.2 1008.7 0.0
21/04:00pm 34.9 31.2 0.1 11 17.5 SW 9 28 5 15 1011.0 1008.5 0.0
21/03:30pm 35.3 32.4 2.7 13 17.1 SW 7 13 4 7 1010.9 1008.4 0.0
21/03:00pm 35.2 31.5 2.6 13 17.1 SE 11 22 6 12 1010.9 1008.4 0.0
21/02:30pm 35.8 31.8 3.1 13 17.4 SW 13 22 7 12 1011.2 1008.7 0.0
21/02:00pm 35.3 30.0 1.6 12 17.4 S 19 30 10 16 1011.4 1008.9 0.0
21/01:30pm 35.3 32.2 1.6 12 17.4 S 7 19 4 10 1011.4 1008.9 0.0
21/01:00pm 35.3 30.3 1.6 12 17.4 S 17 32 9 17 1011.8 1009.3 0.0
21/12:30pm 35.0 30.8 1.4 12 17.3 SSE 13 28 7 15 1012.2 1009.7 0.0
21/12:00pm 34.6 29.6 1.1 12 17.1 SE 17 30 9 16 1012.9 1010.3 0.0
21/11:30am 33.7 28.4 -0.8 11 17.0 SE 17 28 9 15 1013.3 1010.8 0.0
21/11:00am 33.3 27.5 0.1 12 16.5 SE 20 28 11 15 1013.8 1011.3 0.0
21/10:30am 32.7 26.5 -0.4 12 16.3 SE 22 30 12 16 1014.3 1011.8 0.0
21/10:00am 32.2 25.7 0.3 13 15.8 ESE 24 32 13 17 1014.7 1012.2 0.0
21/09:30am 31.1 25.2 1.4 15 14.9 SSE 22 33 12 18 1015.1 1012.5 0.0
21/09:00am 31.3 25.4 1.6 15 15.0 SE 22 32 12 17 1015.3 1012.8 0.0
21/08:30am 29.7 23.3 1.2 16 14.1 SE 24 30 13 16 1015.3 1012.8 0.0
21/08:00am 29.0 22.3 1.5 17 13.6 SE 26 35 14 19 1015.2 1012.6 0.0
21/07:30am 28.2 21.9 1.7 18 13.1 SSE 24 33 13 18 1015.1 1012.5 0.0
21/07:00am 27.4 22.0 2.5 20 12.4 SSE 20 32 11 17 1014.7 1012.2 0.0
21/06:30am 26.3 22.4 3.5 23 11.5 SSW 13 20 7 11 1014.2 1011.7 0.0
21/06:00am 23.9 20.6 4.3 28 9.9 WSW 11 13 6 7 1014.0 1011.5 0.0
21/05:30am 22.0 19.2 5.0 33 8.6 WSW 9 13 5 7 1013.3 1010.8 0.0
21/05:00am 20.9 19.7 4.5 34 8.1 CALM 0 0 0 0 1012.6 1010.0 0.0
21/04:30am 22.3 20.7 4.4 31 9.0 W 2 6 1 3 1012.0 1009.5 0.0
21/04:00am 23.7 20.8 4.6 29 9.7 WSW 9 9 5 5 1011.6 1009.1 0.0
21/03:30am 24.2 21.4 5.1 29 9.8 WSW 9 11 5 6 1011.2 1008.7 0.0
21/03:00am 24.7 21.9 5.0 28 10.1 WSW 9 9 5 5 1011.1 1008.6 0.0
21/02:30am 25.0 21.7 4.7 27 10.4 WSW 11 13 6 7 1011.0 1008.5 0.0
21/02:00am 25.2 22.3 4.9 27 10.5 WSW 9 13 5 7 1011.0 1008.5 0.0
21/01:30am 24.5 21.7 5.3 29 9.9 WSW 9 11 5 6 1011.1 1008.6 0.0
21/01:00am 24.4 21.5 4.7 28 10.1 WSW 9 11 5 6 1011.2 1008.7 0.0
21/12:30am 24.5 21.6 4.8 28 10.1 WSW 9 9 5 5 1011.5 1009.0 0.0
21/12:00am 25.9 22.3 4.9 26 10.9 WSW 13 15 7 8 1011.6 1009.1 0.0
 
Date/Time
WST
Temp
°C
App
Temp
°C
Dew
Point
°C
Rel
Hum
%
Delta-T
°C
Wind Press
QNH
hPa
Press
MSL
hPa
Rain since
9am
mm
Dir  Spd
km/h
Gust
km/h
Spd
kts
Gust
kts
20/11:30pm 25.3 22.2 5.5 28 10.3 WSW 11 13 6 7 1012.0 1009.5 0.0
20/11:00pm 24.7 22.2 5.0 28 10.1 SW 7 9 4 5 1012.1 1009.6 0.0
20/10:30pm 25.3 22.8 5.0 27 10.5 WSW 7 9 4 5 1012.3 1009.8 0.0
20/10:00pm 25.8 22.9 4.9 26 10.8 SW 9 11 5 6 1012.6 1010.0 0.0
20/09:30pm 26.5 23.6 4.9 25 11.2 SW 9 9 5 5 1012.7 1010.1 0.0
20/09:00pm 27.5 24.6 4.5 23 11.9 SW 9 9 5 5 1012.7 1010.1 0.0
20/08:30pm 28.9 26.1 5.1 22 12.6 SW 9 15 5 8 1012.6 1010.0 0.0
20/08:00pm 29.3 26.0 4.7 21 12.9 WSW 11 13 6 7 1012.4 1009.9 0.0
20/07:30pm 29.5 26.6 4.9 21 13.0 WSW 9 11 5 6 1012.2 1009.7 0.0
20/07:00pm 30.0 27.1 4.6 20 13.4 WSW 9 11 5 6 1011.8 1009.3 0.0
20/06:30pm 30.8 27.7 3.8 18 14.1 WSW 9 11 5 6 1011.5 1009.0 0.0
20/06:00pm 32.0 29.0 3.9 17 14.8 W 9 11 5 6 1011.2 1008.7 0.0
20/05:30pm 33.6 30.1 3.4 15 15.9 W 11 15 6 8 1010.8 1008.2 0.0
20/05:00pm 35.2 31.4 3.7 14 16.8 W 13 19 7 10 1010.4 1007.8 0.0
20/04:30pm 35.9 32.0 3.2 13 17.4 NW 13 19 7 10 1010.2 1007.6 0.0
20/04:00pm 36.6 32.6 2.6 12 18.0 W 13 22 7 12 1010.1 1007.5 0.0
20/03:30pm 36.6 32.9 2.6 12 18.0 NW 11 24 6 13 1009.7 1007.2 0.0
20/03:00pm 36.8 32.8 2.8 12 18.1 WSW 13 24 7 13 1009.6 1007.1 0.0
20/02:30pm 37.0 34.2 2.9 12 18.2 NNE 7 15 4 8 1009.8 1007.3 0.0
20/02:00pm 36.3 31.5 2.4 12 17.9 W 17 30 9 16 1010.2 1007.6 0.0
20/01:30pm 36.2 33.1 3.4 13 17.5 E 9 19 5 10 1010.5 1007.9 0.0
20/01:00pm 36.2 32.7 3.4 13 17.6 NNW 11 19 6 10 1010.8 1008.2 0.0
20/12:30pm 35.9 32.0 3.2 13 17.4 NE 13 24 7 13 1011.4 1008.9 0.0
20/12:00pm 35.3 32.4 2.7 13 17.2 N 7 15 4 8 1011.9 1009.4 0.0
20/11:30am 34.4 30.3 2.0 13 16.8 W 13 24 7 13 1012.7 1010.1 0.0
20/11:00am 34.3 30.9 2.0 13 16.7 S 9 17 5 9 1013.2 1010.7 0.0
20/10:30am 33.8 30.0 1.6 13 16.5 S 11 17 6 9 1013.8 1011.3 0.0
20/10:00am 33.0 28.5 -0.2 12 16.4 SW 13 19 7 10 1014.3 1011.8 0.0
20/09:30am 32.2 28.6 0.3 13 15.8 SSW 9 20 5 11 1014.8 1012.3 0.0
20/09:00am 32.3 27.7 1.4 14 15.6 SSW 15 20 8 11 1015.1 1012.5 0.0
20/08:30am 31.0 26.9 2.3 16 14.6 WSW 13 20 7 11 1015.5 1013.0 0.0
20/08:00am 30.4 26.7 2.6 17 14.2 SW 11 17 6 9 1015.4 1012.9 0.0
20/07:30am 28.7 25.2 3.5 20 12.9 WSW 11 17 6 9 1015.4 1012.9 0.0
20/07:00am 26.0 24.7 3.9 24 11.2 CALM 0 0 0 0 1015.2 1012.6 0.0
20/06:30am 23.7 22.3 3.6 27 10.0 CALM 0 0 0 0 1014.8 1012.3 0.0
20/06:00am 21.1 18.8 2.9 30 8.8 SSW 4 6 2 3 1014.5 1012.0 0.0
20/05:30am 21.5 18.1 4.1 32 8.6 WNW 11 15 6 8 1014.2 1011.7 0.0
20/05:00am 18.2 16.4 3.3 37 7.1 WSW 2 6 1 3 1013.5 1011.0 0.0
20/04:30am 18.4 15.6 3.1 36 7.3 WSW 7 7 4 4 1013.1 1010.6 0.0
20/04:00am 18.8 16.0 3.4 36 7.4 WSW 7 11 4 6 1012.8 1010.2 0.0
20/03:30am 18.6 17.2 3.3 36 7.3 CALM 0 0 0 0 1012.8 1010.2 0.0
20/03:00am 19.2 17.8 3.4 35 7.6 CALM 0 0 0 0 1012.7 1010.1 0.0
20/02:30am 19.5 18.0 2.8 33 7.9 CALM 0 0 0 0 1012.7 1010.1 0.0
20/02:00am 20.7 18.1 3.0 31 8.5 W 6 9 3 5 1012.7 1010.1 0.0
20/01:30am 21.3 19.1 3.5 31 8.7 NE 4 7 2 4 1012.8 1010.2 0.0
20/01:00am 21.6 19.9 1.8 27 9.4 CALM 0 0 0 0 1012.7 1010.1 0.0
20/12:30am 23.3 20.4 2.7 26 10.1 WSW 7 7 4 4 1012.8 1010.2 0.0
20/12:00am 23.4 20.5 2.8 26 10.1 WSW 7 9 4 5 1012.9 1010.3 0.0
 
Date/Time
WST
Temp
°C
App
Temp
°C
Dew
Point
°C
Rel
Hum
%
Delta-T
°C
Wind Press
QNH
hPa
Press
MSL
hPa
Rain since
9am
mm
Dir  Spd
km/h
Gust
km/h
Spd
kts
Gust
kts
19/11:30pm 23.9 20.5 2.1 24 10.6 WSW 9 9 5 5 1013.1 1010.6 0.0
19/11:00pm 24.9 21.6 2.4 23 11.0 WSW 9 13 5 7 1013.3 1010.8 0.0
19/10:30pm 25.0 21.8 3.0 24 10.9 WSW 9 11 5 6 1013.4 1010.9 0.0
19/10:00pm 24.4 21.4 1.9 23 10.9 WSW 7 9 4 5 1013.4 1010.9 0.0
19/09:30pm 26.5 22.8 2.4 21 12.0 WSW 11 13 6 7 1013.3 1010.8 0.0
19/09:00pm 26.6 23.3 2.5 21 12.0 WSW 9 9 5 5 1013.2 1010.7 0.0
19/08:30pm 27.7 24.3 2.0 19 12.8 WSW 9 11 5 6 1013.1 1010.6 0.0
19/08:00pm 27.9 24.6 2.2 19 12.8 WSW 9 11 5 6 1013.0 1010.4 0.0
19/07:30pm 28.1 24.8 2.3 19 12.9 SW 9 9 5 5 1012.7 1010.1 0.0
19/07:00pm 28.4 25.4 1.8 18 13.2 SW 7 9 4 5 1012.3 1009.8 0.0
19/06:30pm 29.5 26.5 1.9 17 13.8 SW 7 9 4 5 1012.1 1009.6 0.0
19/06:00pm 30.6 27.6 1.9 16 14.5 SW 7 9 4 5 1011.6 1009.1 0.0
19/05:30pm 32.3 28.8 1.4 14 15.6 WSW 9 13 5 7 1011.3 1008.8 0.0
19/05:00pm 34.0 30.2 1.7 13 16.6 W 11 15 6 8 1011.1 1008.6 0.0
19/04:30pm 34.7 30.8 1.1 12 17.2 NW 11 17 6 9 1011.0 1008.5 0.0
19/04:00pm 34.8 30.9 1.2 12 17.2 NW 11 22 6 12 1010.8 1008.2 0.0
19/03:30pm 35.2 31.0 1.5 12 17.4 WNW 13 20 7 11 1010.8 1008.2 0.0
19/03:00pm 35.2 31.0 1.5 12 17.4 W 13 19 7 10 1010.9 1008.4 0.0
19/02:30pm 35.3 31.5 1.6 12 17.4 SW 11 22 6 12 1011.0 1008.5 0.0
19/02:00pm 35.4 31.6 1.7 12 17.5 NNW 11 26 6 14 1011.3 1008.8 0.0
19/01:30pm 35.0 31.5 1.4 12 17.3 NNE 9 22 5 12 1011.8 1009.3 0.0
19/01:00pm 34.6 30.3 1.1 12 17.1 NNW 13 20 7 11 1012.2 1009.7 0.0
19/12:30pm 34.1 30.1 0.7 12 16.9 SSW 11 22 6 12 1012.9 1010.3 0.0
19/12:00pm 33.4 29.9 1.3 13 16.3 S 9 15 5 8 1013.5 1011.0 0.0
19/11:30am 32.9 29.3 0.9 13 16.1 S 9 19 5 10 1014.0 1011.5 0.0
19/11:00am 32.3 27.9 0.4 13 15.9 SSW 13 20 7 11 1014.5 1012.0 0.0
19/10:30am 31.7 28.5 1.0 14 15.4 SE 7 17 4 9 1015.1 1012.5 0.0

Other formats

Comma delimited format used in spreadsheet applications
http://www.bom.gov.au/fwo/IDW60801/IDW60801.94212.axf

JavaScript Object Notation format (JSON) in row-major order
http://www.bom.gov.au/fwo/IDW60801/IDW60801.94212.json

Data quality

Most of these data are generated automatically and are frequently updated. Quality checks on data are not normally performed. It is possible for incorrect values to appear. Refer to information at About Latest Weather Observations and please check the disclaimer before using these data.